sensor_id;sensor_type;location;lat;lon;timestamp;temperature;humidity
32322;DHT22;61553;48.994;8.940;2022-08-25T00:01:27;18.10;99.90
32322;DHT22;61553;48.994;8.940;2022-08-25T00:03:55;18.10;99.90
32322;DHT22;61553;48.994;8.940;2022-08-25T00:06:21;18.00;99.90
32322;DHT22;61553;48.994;8.940;2022-08-25T00:08:47;18.00;99.90
32322;DHT22;61553;48.994;8.940;2022-08-25T00:11:19;17.90;99.90
32322;DHT22;61553;48.994;8.940;2022-08-25T00:13:50;17.80;99.90
32322;DHT22;61553;48.994;8.940;2022-08-25T00:16:17;17.70;99.90
32322;DHT22;61553;48.994;8.940;2022-08-25T00:18:47;17.60;99.90
32322;DHT22;61553;48.994;8.940;2022-08-25T00:21:14;17.50;99.90
32322;DHT22;61553;48.994;8.940;2022-08-25T00:23:41;17.50;99.90
32322;DHT22;61553;48.994;8.940;2022-08-25T00:26:08;17.40;99.90
32322;DHT22;61553;48.994;8.940;2022-08-25T00:28:35;17.40;99.90
32322;DHT22;61553;48.994;8.940;2022-08-25T00:31:02;17.30;99.90
32322;DHT22;61553;48.994;8.940;2022-08-25T00:33:28;17.20;99.90
32322;DHT22;61553;48.994;8.940;2022-08-25T00:35:56;17.20;99.90
32322;DHT22;61553;48.994;8.940;2022-08-25T00:38:23;17.10;99.90
32322;DHT22;61553;48.994;8.940;2022-08-25T00:40:49;17.10;99.90
32322;DHT22;61553;48.994;8.940;2022-08-25T00:43:55;17.00;99.90
32322;DHT22;61553;48.994;8.940;2022-08-25T00:46:24;17.00;99.90
32322;DHT22;61553;48.994;8.940;2022-08-25T00:49:00;17.00;99.90
32322;DHT22;61553;48.994;8.940;2022-08-25T00:51:34;17.00;99.90
32322;DHT22;61553;48.994;8.940;2022-08-25T00:54:02;16.90;99.90
32322;DHT22;61553;48.994;8.940;2022-08-25T00:56:29;16.80;99.90
32322;DHT22;61553;48.994;8.940;2022-08-25T00:58:56;16.90;99.90
32322;DHT22;61553;48.994;8.940;2022-08-25T01:01:22;16.90;99.90
32322;DHT22;61553;48.994;8.940;2022-08-25T01:03:48;16.80;99.90
32322;DHT22;61553;48.994;8.940;2022-08-25T01:06:14;16.80;99.90
32322;DHT22;61553;48.994;8.940;2022-08-25T01:08:40;16.70;99.90
32322;DHT22;61553;48.994;8.940;2022-08-25T01:11:08;16.60;99.90
32322;DHT22;61553;48.994;8.940;2022-08-25T01:13:44;16.60;99.90
32322;DHT22;61553;48.994;8.940;2022-08-25T01:16:13;16.50;99.90
32322;DHT22;61553;48.994;8.940;2022-08-25T01:18:57;16.50;99.90
32322;DHT22;61553;48.994;8.940;2022-08-25T01:21:27;16.40;99.90
32322;DHT22;61553;48.994;8.940;2022-08-25T01:23:55;16.40;99.90
32322;DHT22;61553;48.994;8.940;2022-08-25T01:26:26;16.40;99.90
32322;DHT22;61553;48.994;8.940;2022-08-25T01:28:53;16.40;99.90
32322;DHT22;61553;48.994;8.940;2022-08-25T01:31:38;16.30;99.90
32322;DHT22;61553;48.994;8.940;2022-08-25T01:34:05;16.30;99.90
32322;DHT22;61553;48.994;8.940;2022-08-25T01:36:33;16.20;99.90
32322;DHT22;61553;48.994;8.940;2022-08-25T01:38:58;16.20;99.90
32322;DHT22;61553;48.994;8.940;2022-08-25T01:44:00;16.10;99.90
32322;DHT22;61553;48.994;8.940;2022-08-25T01:46:26;16.10;99.90
32322;DHT22;61553;48.994;8.940;2022-08-25T01:48:51;16.00;99.90
32322;DHT22;61553;48.994;8.940;2022-08-25T01:51:20;15.90;99.90
32322;DHT22;61553;48.994;8.940;2022-08-25T01:53:48;15.90;99.90
32322;DHT22;61553;48.994;8.940;2022-08-25T01:56:15;15.90;99.90
32322;DHT22;61553;48.994;8.940;2022-08-25T01:58:44;15.90;99.90
32322;DHT22;61553;48.994;8.940;2022-08-25T02:01:17;15.80;99.90
32322;DHT22;61553;48.994;8.940;2022-08-25T02:03:46;15.80;99.90
32322;DHT22;61553;48.994;8.940;2022-08-25T02:06:14;15.80;99.90
32322;DHT22;61553;48.994;8.940;2022-08-25T02:08:41;15.70;99.90
32322;DHT22;61553;48.994;8.940;2022-08-25T02:11:10;15.70;99.90
32322;DHT22;61553;48.994;8.940;2022-08-25T02:13:37;15.70;99.90
32322;DHT22;61553;48.994;8.940;2022-08-25T02:16:03;15.70;99.90
32322;DHT22;61553;48.994;8.940;2022-08-25T02:18:29;15.60;99.90
32322;DHT22;61553;48.994;8.940;2022-08-25T02:20:54;15.60;99.90
32322;DHT22;61553;48.994;8.940;2022-08-25T02:23:20;15.60;99.90
32322;DHT22;61553;48.994;8.940;2022-08-25T02:25:46;15.60;99.90
32322;DHT22;61553;48.994;8.940;2022-08-25T02:28:12;15.60;99.90
32322;DHT22;61553;48.994;8.940;2022-08-25T02:30:39;15.50;99.90
32322;DHT22;61553;48.994;8.940;2022-08-25T02:33:06;15.50;99.90
32322;DHT22;61553;48.994;8.940;2022-08-25T02:35:33;15.50;99.90
32322;DHT22;61553;48.994;8.940;2022-08-25T02:37:59;15.50;99.90
32322;DHT22;61553;48.994;8.940;2022-08-25T02:40:25;15.40;99.90
32322;DHT22;61553;48.994;8.940;2022-08-25T02:42:52;15.40;99.90
32322;DHT22;61553;48.994;8.940;2022-08-25T02:45:18;15.30;99.90
32322;DHT22;61553;48.994;8.940;2022-08-25T02:47:44;15.30;99.90
32322;DHT22;61553;48.994;8.940;2022-08-25T02:50:10;15.30;99.90
32322;DHT22;61553;48.994;8.940;2022-08-25T02:52:36;15.30;99.90
32322;DHT22;61553;48.994;8.940;2022-08-25T02:55:04;15.30;99.90
32322;DHT22;61553;48.994;8.940;2022-08-25T02:57:30;15.30;99.90
32322;DHT22;61553;48.994;8.940;2022-08-25T02:59:56;15.20;99.90
32322;DHT22;61553;48.994;8.940;2022-08-25T03:02:24;15.20;99.90
32322;DHT22;61553;48.994;8.940;2022-08-25T03:04:51;15.20;99.90
32322;DHT22;61553;48.994;8.940;2022-08-25T03:07:18;15.20;99.90
32322;DHT22;61553;48.994;8.940;2022-08-25T03:09:44;15.20;99.90
32322;DHT22;61553;48.994;8.940;2022-08-25T03:12:10;15.20;99.90
32322;DHT22;61553;48.994;8.940;2022-08-25T03:14:37;15.10;99.90
32322;DHT22;61553;48.994;8.940;2022-08-25T03:17:04;15.10;99.90
32322;DHT22;61553;48.994;8.940;2022-08-25T03:19:30;15.00;99.90
32322;DHT22;61553;48.994;8.940;2022-08-25T03:21:55;15.00;99.90
32322;DHT22;61553;48.994;8.940;2022-08-25T03:24:22;14.90;99.90
32322;DHT22;61553;48.994;8.940;2022-08-25T03:26:48;14.90;99.90
32322;DHT22;61553;48.994;8.940;2022-08-25T03:29:25;14.90;99.90
32322;DHT22;61553;48.994;8.940;2022-08-25T03:31:52;14.90;99.90
32322;DHT22;61553;48.994;8.940;2022-08-25T03:34:20;14.80;99.90
32322;DHT22;61553;48.994;8.940;2022-08-25T03:36:48;14.80;99.90
32322;DHT22;61553;48.994;8.940;2022-08-25T03:39:15;14.70;99.90
32322;DHT22;61553;48.994;8.940;2022-08-25T03:41:41;14.70;99.90
32322;DHT22;61553;48.994;8.940;2022-08-25T03:44:08;14.70;99.90
32322;DHT22;61553;48.994;8.940;2022-08-25T03:46:41;14.60;99.90
32322;DHT22;61553;48.994;8.940;2022-08-25T03:49:10;14.70;99.90
32322;DHT22;61553;48.994;8.940;2022-08-25T03:51:43;14.60;99.90
32322;DHT22;61553;48.994;8.940;2022-08-25T03:54:11;14.60;99.90
32322;DHT22;61553;48.994;8.940;2022-08-25T03:56:37;14.70;99.90
32322;DHT22;61553;48.994;8.940;2022-08-25T03:59:04;14.70;99.90
32322;DHT22;61553;48.994;8.940;2022-08-25T04:01:30;14.70;99.90
32322;DHT22;61553;48.994;8.940;2022-08-25T04:03:56;14.70;99.90
32322;DHT22;61553;48.994;8.940;2022-08-25T04:06:22;14.70;99.90
32322;DHT22;61553;48.994;8.940;2022-08-25T04:08:47;14.60;99.90
32322;DHT22;61553;48.994;8.940;2022-08-25T04:11:20;14.60;99.90
32322;DHT22;61553;48.994;8.940;2022-08-25T04:13:46;14.50;99.90
32322;DHT22;61553;48.994;8.940;2022-08-25T04:16:18;14.50;99.90
32322;DHT22;61553;48.994;8.940;2022-08-25T04:18:45;14.50;99.90
32322;DHT22;61553;48.994;8.940;2022-08-25T04:21:11;14.40;99.90
32322;DHT22;61553;48.994;8.940;2022-08-25T04:23:43;14.50;99.90
32322;DHT22;61553;48.994;8.940;2022-08-25T04:26:11;14.50;99.90
32322;DHT22;61553;48.994;8.940;2022-08-25T04:28:37;14.50;99.90
32322;DHT22;61553;48.994;8.940;2022-08-25T04:31:10;14.60;99.90
32322;DHT22;61553;48.994;8.940;2022-08-25T04:33:37;14.70;99.90
32322;DHT22;61553;48.994;8.940;2022-08-25T04:36:04;14.70;99.90
32322;DHT22;61553;48.994;8.940;2022-08-25T04:38:31;14.60;99.90
32322;DHT22;61553;48.994;8.940;2022-08-25T04:41:02;14.50;99.90
32322;DHT22;61553;48.994;8.940;2022-08-25T04:43:32;14.50;99.90
32322;DHT22;61553;48.994;8.940;2022-08-25T04:46:11;14.50;99.90
32322;DHT22;61553;48.994;8.940;2022-08-25T04:48:37;14.50;99.90
32322;DHT22;61553;48.994;8.940;2022-08-25T04:51:12;14.40;99.90
32322;DHT22;61553;48.994;8.940;2022-08-25T04:53:39;14.50;99.90
32322;DHT22;61553;48.994;8.940;2022-08-25T04:56:08;14.40;99.90
32322;DHT22;61553;48.994;8.940;2022-08-25T04:58:34;14.40;99.90
32322;DHT22;61553;48.994;8.940;2022-08-25T05:01:02;14.50;99.90
32322;DHT22;61553;48.994;8.940;2022-08-25T05:03:28;14.50;99.90
32322;DHT22;61553;48.994;8.940;2022-08-25T05:05:55;14.50;99.90
32322;DHT22;61553;48.994;8.940;2022-08-25T05:08:21;14.60;99.90
32322;DHT22;61553;48.994;8.940;2022-08-25T05:10:46;14.60;99.90
32322;DHT22;61553;48.994;8.940;2022-08-25T05:13:13;14.70;99.90
32322;DHT22;61553;48.994;8.940;2022-08-25T05:15:38;14.70;99.90
32322;DHT22;61553;48.994;8.940;2022-08-25T05:18:17;14.80;99.90
32322;DHT22;61553;48.994;8.940;2022-08-25T05:20:43;15.00;99.90
32322;DHT22;61553;48.994;8.940;2022-08-25T05:23:09;15.10;99.90
32322;DHT22;61553;48.994;8.940;2022-08-25T05:25:35;15.20;99.90
32322;DHT22;61553;48.994;8.940;2022-08-25T05:28:01;15.30;99.90
32322;DHT22;61553;48.994;8.940;2022-08-25T05:30:27;15.40;99.90
32322;DHT22;61553;48.994;8.940;2022-08-25T05:32:53;15.50;99.90
32322;DHT22;61553;48.994;8.940;2022-08-25T05:35:19;15.60;99.90
32322;DHT22;61553;48.994;8.940;2022-08-25T05:37:45;15.70;99.90
32322;DHT22;61553;48.994;8.940;2022-08-25T05:40:11;15.80;99.90
32322;DHT22;61553;48.994;8.940;2022-08-25T05:42:37;15.90;99.90
32322;DHT22;61553;48.994;8.940;2022-08-25T05:45:04;16.10;99.90
32322;DHT22;61553;48.994;8.940;2022-08-25T05:47:30;16.20;99.90
32322;DHT22;61553;48.994;8.940;2022-08-25T05:49:56;16.30;99.90
32322;DHT22;61553;48.994;8.940;2022-08-25T05:52:21;16.50;99.90
32322;DHT22;61553;48.994;8.940;2022-08-25T05:54:47;16.60;99.90
32322;DHT22;61553;48.994;8.940;2022-08-25T05:57:13;16.70;99.90
32322;DHT22;61553;48.994;8.940;2022-08-25T05:59:39;16.90;99.90
32322;DHT22;61553;48.994;8.940;2022-08-25T06:02:05;17.00;99.90
32322;DHT22;61553;48.994;8.940;2022-08-25T06:04:49;17.20;99.90
32322;DHT22;61553;48.994;8.940;2022-08-25T06:07:15;17.30;99.90
32322;DHT22;61553;48.994;8.940;2022-08-25T06:09:41;17.50;99.90
32322;DHT22;61553;48.994;8.940;2022-08-25T06:12:07;17.60;99.90
32322;DHT22;61553;48.994;8.940;2022-08-25T06:14:34;17.70;99.90
32322;DHT22;61553;48.994;8.940;2022-08-25T06:16:59;17.90;99.90
32322;DHT22;61553;48.994;8.940;2022-08-25T06:19:26;18.00;99.90
32322;DHT22;61553;48.994;8.940;2022-08-25T06:21:55;18.20;99.90
32322;DHT22;61553;48.994;8.940;2022-08-25T06:24:23;18.30;99.90
32322;DHT22;61553;48.994;8.940;2022-08-25T06:26:49;18.50;99.90
32322;DHT22;61553;48.994;8.940;2022-08-25T06:29:15;18.70;99.90
32322;DHT22;61553;48.994;8.940;2022-08-25T06:31:41;18.90;99.90
32322;DHT22;61553;48.994;8.940;2022-08-25T06:34:08;19.10;99.90
32322;DHT22;61553;48.994;8.940;2022-08-25T06:36:34;19.40;99.90
32322;DHT22;61553;48.994;8.940;2022-08-25T06:39:00;19.60;99.90
32322;DHT22;61553;48.994;8.940;2022-08-25T06:41:26;21.30;99.90
32322;DHT22;61553;48.994;8.940;2022-08-25T06:43:52;25.70;99.90
32322;DHT22;61553;48.994;8.940;2022-08-25T06:46:23;29.30;89.30
32322;DHT22;61553;48.994;8.940;2022-08-25T06:48:51;32.80;70.60
32322;DHT22;61553;48.994;8.940;2022-08-25T06:51:18;35.80;57.10
32322;DHT22;61553;48.994;8.940;2022-08-25T06:53:46;37.90;50.00
32322;DHT22;61553;48.994;8.940;2022-08-25T06:56:12;39.10;45.90
32322;DHT22;61553;48.994;8.940;2022-08-25T06:58:38;40.40;43.50
32322;DHT22;61553;48.994;8.940;2022-08-25T07:01:22;41.50;41.30
32322;DHT22;61553;48.994;8.940;2022-08-25T07:03:51;41.80;40.10
32322;DHT22;61553;48.994;8.940;2022-08-25T07:06:17;42.00;39.90
32322;DHT22;61553;48.994;8.940;2022-08-25T07:08:43;42.70;39.10
32322;DHT22;61553;48.994;8.940;2022-08-25T07:11:10;43.50;38.30
32322;DHT22;61553;48.994;8.940;2022-08-25T07:13:37;43.60;37.80
32322;DHT22;61553;48.994;8.940;2022-08-25T07:16:04;42.00;38.90
32322;DHT22;61553;48.994;8.940;2022-08-25T07:18:30;42.10;39.30
32322;DHT22;61553;48.994;8.940;2022-08-25T07:20:56;42.70;38.60
32322;DHT22;61553;48.994;8.940;2022-08-25T07:23:23;42.50;38.70
32322;DHT22;61553;48.994;8.940;2022-08-25T07:25:49;43.40;37.90
32322;DHT22;61553;48.994;8.940;2022-08-25T07:28:16;43.40;37.90
32322;DHT22;61553;48.994;8.940;2022-08-25T07:30:42;43.30;37.80
32322;DHT22;61553;48.994;8.940;2022-08-25T07:33:08;43.20;38.00
32322;DHT22;61553;48.994;8.940;2022-08-25T07:35:33;42.30;38.30
32322;DHT22;61553;48.994;8.940;2022-08-25T07:38:01;42.30;38.30
32322;DHT22;61553;48.994;8.940;2022-08-25T07:40:28;42.20;38.50
32322;DHT22;61553;48.994;8.940;2022-08-25T07:42:55;42.10;38.40
32322;DHT22;61553;48.994;8.940;2022-08-25T07:45:24;42.60;37.90
32322;DHT22;61553;48.994;8.940;2022-08-25T07:48:00;42.90;37.60
32322;DHT22;61553;48.994;8.940;2022-08-25T07:50:27;43.80;36.90
32322;DHT22;61553;48.994;8.940;2022-08-25T07:52:55;44.30;36.40
32322;DHT22;61553;48.994;8.940;2022-08-25T07:55:23;44.60;36.20
32322;DHT22;61553;48.994;8.940;2022-08-25T07:57:49;45.20;35.60
32322;DHT22;61553;48.994;8.940;2022-08-25T08:00:16;45.00;35.50
32322;DHT22;61553;48.994;8.940;2022-08-25T08:02:42;45.30;35.30
32322;DHT22;61553;48.994;8.940;2022-08-25T08:05:10;44.40;35.60
32322;DHT22;61553;48.994;8.940;2022-08-25T08:07:36;43.00;36.70
32322;DHT22;61553;48.994;8.940;2022-08-25T08:10:02;42.80;37.00
32322;DHT22;61553;48.994;8.940;2022-08-25T08:12:29;42.40;37.10
32322;DHT22;61553;48.994;8.940;2022-08-25T08:14:54;42.30;37.20
32322;DHT22;61553;48.994;8.940;2022-08-25T08:17:20;42.20;37.30
32322;DHT22;61553;48.994;8.940;2022-08-25T08:19:46;42.00;37.50
32322;DHT22;61553;48.994;8.940;2022-08-25T08:22:12;41.30;38.00
32322;DHT22;61553;48.994;8.940;2022-08-25T08:24:43;41.60;38.00
32322;DHT22;61553;48.994;8.940;2022-08-25T08:27:11;41.60;37.90
32322;DHT22;61553;48.994;8.940;2022-08-25T08:29:38;41.60;37.90
32322;DHT22;61553;48.994;8.940;2022-08-25T08:32:05;42.20;37.50
32322;DHT22;61553;48.994;8.940;2022-08-25T08:34:32;42.50;37.20
32322;DHT22;61553;48.994;8.940;2022-08-25T08:36:58;42.10;37.70
32322;DHT22;61553;48.994;8.940;2022-08-25T08:39:27;42.30;37.10
32322;DHT22;61553;48.994;8.940;2022-08-25T08:47:45;45.10;35.10
32322;DHT22;61553;48.994;8.940;2022-08-25T08:58:05;44.30;34.70
32322;DHT22;61553;48.994;8.940;2022-08-25T09:00:41;45.30;34.10
32322;DHT22;61553;48.994;8.940;2022-08-25T09:06:19;45.00;34.50
32322;DHT22;61553;48.994;8.940;2022-08-25T09:08:46;45.40;34.50
32322;DHT22;61553;48.994;8.940;2022-08-25T09:20:06;44.80;34.30
32322;DHT22;61553;48.994;8.940;2022-08-25T09:22:31;45.50;33.90
32322;DHT22;61553;48.994;8.940;2022-08-25T09:25:30;46.10;33.50
32322;DHT22;61553;48.994;8.940;2022-08-25T09:33:28;47.90;32.10
32322;DHT22;61553;48.994;8.940;2022-08-25T09:35:55;47.50;32.10
32322;DHT22;61553;48.994;8.940;2022-08-25T09:38:22;47.90;31.90
32322;DHT22;61553;48.994;8.940;2022-08-25T09:40:52;47.70;32.00
32322;DHT22;61553;48.994;8.940;2022-08-25T09:46:15;49.20;31.20
32322;DHT22;61553;48.994;8.940;2022-08-25T09:48:46;48.50;32.30
32322;DHT22;61553;48.994;8.940;2022-08-25T09:51:38;48.40;31.40
32322;DHT22;61553;48.994;8.940;2022-08-25T09:56:58;48.50;31.40
32322;DHT22;61553;48.994;8.940;2022-08-25T09:59:33;47.80;31.50
32322;DHT22;61553;48.994;8.940;2022-08-25T10:02:05;47.10;31.40
32322;DHT22;61553;48.994;8.940;2022-08-25T10:04:45;46.40;32.00
32322;DHT22;61553;48.994;8.940;2022-08-25T10:07:29;45.50;32.40
32322;DHT22;61553;48.994;8.940;2022-08-25T10:10:01;45.60;32.40
32322;DHT22;61553;48.994;8.940;2022-08-25T10:12:34;45.20;32.90
32322;DHT22;61553;48.994;8.940;2022-08-25T10:17:40;45.90;32.80
32322;DHT22;61553;48.994;8.940;2022-08-25T10:20:25;45.80;32.70
32322;DHT22;61553;48.994;8.940;2022-08-25T10:22:51;46.40;32.30
32322;DHT22;61553;48.994;8.940;2022-08-25T10:25:31;46.70;32.00
32322;DHT22;61553;48.994;8.940;2022-08-25T10:36:21;44.30;33.30
32322;DHT22;61553;48.994;8.940;2022-08-25T10:38:55;43.30;34.20
32322;DHT22;61553;48.994;8.940;2022-08-25T10:41:37;41.90;35.20
32322;DHT22;61553;48.994;8.940;2022-08-25T10:47:18;38.60;37.60
32322;DHT22;61553;48.994;8.940;2022-08-25T10:50:03;37.40;39.20
32322;DHT22;61553;48.994;8.940;2022-08-25T10:52:38;36.30;40.50
32322;DHT22;61553;48.994;8.940;2022-08-25T10:55:17;35.80;41.20
32322;DHT22;61553;48.994;8.940;2022-08-25T10:57:57;35.50;41.80
32322;DHT22;61553;48.994;8.940;2022-08-25T11:00:50;35.10;42.00
32322;DHT22;61553;48.994;8.940;2022-08-25T11:03:42;34.80;42.20
32322;DHT22;61553;48.994;8.940;2022-08-25T11:06:46;34.70;42.60
32322;DHT22;61553;48.994;8.940;2022-08-25T11:09:19;34.40;42.90
32322;DHT22;61553;48.994;8.940;2022-08-25T11:11:56;34.30;42.60
32322;DHT22;61553;48.994;8.940;2022-08-25T11:14:34;33.90;43.40
32322;DHT22;61553;48.994;8.940;2022-08-25T11:17:12;33.40;43.80
32322;DHT22;61553;48.994;8.940;2022-08-25T11:19:46;33.40;43.90
32322;DHT22;61553;48.994;8.940;2022-08-25T11:22:23;33.20;44.20
32322;DHT22;61553;48.994;8.940;2022-08-25T11:27:30;33.40;44.30
32322;DHT22;61553;48.994;8.940;2022-08-25T11:30:06;33.60;44.10
32322;DHT22;61553;48.994;8.940;2022-08-25T11:32:34;33.90;43.50
32322;DHT22;61553;48.994;8.940;2022-08-25T11:35:03;34.10;43.30
32322;DHT22;61553;48.994;8.940;2022-08-25T11:37:30;34.20;42.80
32322;DHT22;61553;48.994;8.940;2022-08-25T11:43:04;33.90;43.30
32322;DHT22;61553;48.994;8.940;2022-08-25T11:51:41;32.60;45.40
32322;DHT22;61553;48.994;8.940;2022-08-25T11:53:42;32.40;45.80
32322;DHT22;61553;48.994;8.940;2022-08-25T11:58:48;32.40;45.80
32322;DHT22;61553;48.994;8.940;2022-08-25T12:04:11;32.40;45.60
32322;DHT22;61553;48.994;8.940;2022-08-25T12:15:31;33.00;43.70
32322;DHT22;61553;48.994;8.940;2022-08-25T12:18:36;32.40;44.60
32322;DHT22;61553;48.994;8.940;2022-08-25T12:23:36;32.20;45.30
32322;DHT22;61553;48.994;8.940;2022-08-25T12:29:09;32.30;45.20
32322;DHT22;61553;48.994;8.940;2022-08-25T12:37:11;32.70;44.30
32322;DHT22;61553;48.994;8.940;2022-08-25T12:39:58;32.50;44.00
32322;DHT22;61553;48.994;8.940;2022-08-25T12:47:47;33.10;43.90
32322;DHT22;61553;48.994;8.940;2022-08-25T12:50:41;33.10;43.60
32322;DHT22;61553;48.994;8.940;2022-08-25T12:56:09;33.00;43.80
32322;DHT22;61553;48.994;8.940;2022-08-25T13:10:10;32.00;44.50
32322;DHT22;61553;48.994;8.940;2022-08-25T13:15:33;32.40;44.50
32322;DHT22;61553;48.994;8.940;2022-08-25T13:18:30;32.50;44.30
32322;DHT22;61553;48.994;8.940;2022-08-25T13:23:44;32.40;43.80
32322;DHT22;61553;48.994;8.940;2022-08-25T13:26:25;32.40;44.00
32322;DHT22;61553;48.994;8.940;2022-08-25T13:31:36;32.40;43.30
32322;DHT22;61553;48.994;8.940;2022-08-25T13:34:17;32.40;43.30
32322;DHT22;61553;48.994;8.940;2022-08-25T13:36:46;32.60;43.30
32322;DHT22;61553;48.994;8.940;2022-08-25T13:39:31;32.50;43.10
32322;DHT22;61553;48.994;8.940;2022-08-25T13:42:01;32.50;43.00
32322;DHT22;61553;48.994;8.940;2022-08-25T13:44:30;32.60;43.10
32322;DHT22;61553;48.994;8.940;2022-08-25T13:47:07;32.70;43.40
32322;DHT22;61553;48.994;8.940;2022-08-25T13:49:33;32.80;43.10
32322;DHT22;61553;48.994;8.940;2022-08-25T13:51:59;33.00;43.20
32322;DHT22;61553;48.994;8.940;2022-08-25T13:54:37;33.00;42.90
32322;DHT22;61553;48.994;8.940;2022-08-25T13:59:36;33.40;42.40
32322;DHT22;61553;48.994;8.940;2022-08-25T14:02:04;33.50;41.90
32322;DHT22;61553;48.994;8.940;2022-08-25T14:12:31;33.50;41.30
32322;DHT22;61553;48.994;8.940;2022-08-25T14:17:43;33.40;42.10
32322;DHT22;61553;48.994;8.940;2022-08-25T14:20:22;33.30;42.50
32322;DHT22;61553;48.994;8.940;2022-08-25T14:22:54;33.00;43.00
32322;DHT22;61553;48.994;8.940;2022-08-25T14:25:20;32.40;43.50
32322;DHT22;61553;48.994;8.940;2022-08-25T14:27:57;31.90;44.20
32322;DHT22;61553;48.994;8.940;2022-08-25T14:30:24;31.70;44.50
32322;DHT22;61553;48.994;8.940;2022-08-25T14:32:50;31.60;44.90
32322;DHT22;61553;48.994;8.940;2022-08-25T14:35:16;31.30;45.50
32322;DHT22;61553;48.994;8.940;2022-08-25T14:37:43;31.20;45.70
32322;DHT22;61553;48.994;8.940;2022-08-25T14:40:10;31.40;45.20
32322;DHT22;61553;48.994;8.940;2022-08-25T14:42:38;31.70;44.70
32322;DHT22;61553;48.994;8.940;2022-08-25T14:45:05;31.90;44.30
32322;DHT22;61553;48.994;8.940;2022-08-25T14:47:31;32.00;44.20
32322;DHT22;61553;48.994;8.940;2022-08-25T14:49:57;32.20;44.30
32322;DHT22;61553;48.994;8.940;2022-08-25T14:52:28;32.40;44.40
32322;DHT22;61553;48.994;8.940;2022-08-25T14:54:55;32.50;44.10
32322;DHT22;61553;48.994;8.940;2022-08-25T14:57:22;32.60;43.60
32322;DHT22;61553;48.994;8.940;2022-08-25T14:59:48;32.60;43.70
32322;DHT22;61553;48.994;8.940;2022-08-25T15:02:15;32.60;43.20
32322;DHT22;61553;48.994;8.940;2022-08-25T15:04:57;32.70;43.00
32322;DHT22;61553;48.994;8.940;2022-08-25T15:07:25;32.70;42.00
32322;DHT22;61553;48.994;8.940;2022-08-25T15:10:10;32.80;41.80
32322;DHT22;61553;48.994;8.940;2022-08-25T15:12:35;32.80;41.10
32322;DHT22;61553;48.994;8.940;2022-08-25T15:15:01;32.80;40.90
32322;DHT22;61553;48.994;8.940;2022-08-25T15:17:28;32.70;41.50
32322;DHT22;61553;48.994;8.940;2022-08-25T15:19:53;32.70;42.10
32322;DHT22;61553;48.994;8.940;2022-08-25T15:22:19;32.70;42.10
32322;DHT22;61553;48.994;8.940;2022-08-25T15:24:45;32.80;42.10
32322;DHT22;61553;48.994;8.940;2022-08-25T15:27:11;32.90;41.80
32322;DHT22;61553;48.994;8.940;2022-08-25T15:29:37;33.10;41.80
32322;DHT22;61553;48.994;8.940;2022-08-25T15:32:08;33.30;41.40
32322;DHT22;61553;48.994;8.940;2022-08-25T15:34:34;33.50;41.60
32322;DHT22;61553;48.994;8.940;2022-08-25T15:37:07;33.50;41.40
32322;DHT22;61553;48.994;8.940;2022-08-25T15:39:34;33.70;41.40
32322;DHT22;61553;48.994;8.940;2022-08-25T15:42:00;33.70;41.00
32322;DHT22;61553;48.994;8.940;2022-08-25T15:44:27;33.90;41.00
32322;DHT22;61553;48.994;8.940;2022-08-25T15:46:52;33.80;40.80
32322;DHT22;61553;48.994;8.940;2022-08-25T15:49:20;33.90;41.10
32322;DHT22;61553;48.994;8.940;2022-08-25T15:51:46;34.00;41.00
32322;DHT22;61553;48.994;8.940;2022-08-25T15:54:11;34.10;40.80
32322;DHT22;61553;48.994;8.940;2022-08-25T15:56:39;34.00;40.70
32322;DHT22;61553;48.994;8.940;2022-08-25T15:59:04;33.80;40.80
32322;DHT22;61553;48.994;8.940;2022-08-25T16:01:30;33.60;40.80
32322;DHT22;61553;48.994;8.940;2022-08-25T16:03:56;33.50;41.40
32322;DHT22;61553;48.994;8.940;2022-08-25T16:06:24;33.30;41.40
32322;DHT22;61553;48.994;8.940;2022-08-25T16:08:50;33.00;41.60
32322;DHT22;61553;48.994;8.940;2022-08-25T16:11:22;32.80;41.60
32322;DHT22;61553;48.994;8.940;2022-08-25T16:13:49;32.60;41.70
32322;DHT22;61553;48.994;8.940;2022-08-25T16:16:16;32.60;42.00
32322;DHT22;61553;48.994;8.940;2022-08-25T16:18:43;32.40;42.10
32322;DHT22;61553;48.994;8.940;2022-08-25T16:21:11;32.20;42.60
32322;DHT22;61553;48.994;8.940;2022-08-25T16:23:38;32.00;43.20
32322;DHT22;61553;48.994;8.940;2022-08-25T16:26:05;31.80;43.50
32322;DHT22;61553;48.994;8.940;2022-08-25T16:28:37;31.80;43.70
32322;DHT22;61553;48.994;8.940;2022-08-25T16:31:03;31.60;44.10
32322;DHT22;61553;48.994;8.940;2022-08-25T16:33:29;31.40;44.50
32322;DHT22;61553;48.994;8.940;2022-08-25T16:36:10;31.30;44.90
32322;DHT22;61553;48.994;8.940;2022-08-25T16:38:37;31.00;45.40
32322;DHT22;61553;48.994;8.940;2022-08-25T16:41:12;30.80;45.80
32322;DHT22;61553;48.994;8.940;2022-08-25T16:43:40;30.60;46.80
32322;DHT22;61553;48.994;8.940;2022-08-25T16:46:08;30.40;46.50
32322;DHT22;61553;48.994;8.940;2022-08-25T16:48:35;30.20;46.70
32322;DHT22;61553;48.994;8.940;2022-08-25T16:51:09;30.10;47.20
32322;DHT22;61553;48.994;8.940;2022-08-25T16:53:35;30.00;47.50
32322;DHT22;61553;48.994;8.940;2022-08-25T16:56:20;29.80;47.90
32322;DHT22;61553;48.994;8.940;2022-08-25T16:58:51;29.80;48.10
32322;DHT22;61553;48.994;8.940;2022-08-25T17:01:17;29.70;48.10
32322;DHT22;61553;48.994;8.940;2022-08-25T17:03:43;29.70;48.10
32322;DHT22;61553;48.994;8.940;2022-08-25T17:06:09;29.60;47.90
32322;DHT22;61553;48.994;8.940;2022-08-25T17:08:35;29.60;47.90
32322;DHT22;61553;48.994;8.940;2022-08-25T17:13:48;29.60;48.10
32322;DHT22;61553;48.994;8.940;2022-08-25T17:16:15;29.60;48.10
32322;DHT22;61553;48.994;8.940;2022-08-25T17:18:41;29.60;48.10
32322;DHT22;61553;48.994;8.940;2022-08-25T17:21:09;29.50;47.90
32322;DHT22;61553;48.994;8.940;2022-08-25T17:23:39;29.50;47.40
32322;DHT22;61553;48.994;8.940;2022-08-25T17:26:05;29.40;47.60
32322;DHT22;61553;48.994;8.940;2022-08-25T17:28:32;29.40;47.60
32322;DHT22;61553;48.994;8.940;2022-08-25T17:30:57;29.30;47.60
32322;DHT22;61553;48.994;8.940;2022-08-25T17:33:24;29.30;47.60
32322;DHT22;61553;48.994;8.940;2022-08-25T17:35:52;29.20;47.80
32322;DHT22;61553;48.994;8.940;2022-08-25T17:38:20;29.10;48.00
32322;DHT22;61553;48.994;8.940;2022-08-25T17:40:53;29.00;48.30
32322;DHT22;61553;48.994;8.940;2022-08-25T17:43:20;28.90;48.40
32322;DHT22;61553;48.994;8.940;2022-08-25T17:45:46;28.90;48.90
32322;DHT22;61553;48.994;8.940;2022-08-25T17:48:12;28.70;49.20
32322;DHT22;61553;48.994;8.940;2022-08-25T17:50:38;28.60;49.60
32322;DHT22;61553;48.994;8.940;2022-08-25T17:53:05;28.50;49.90
32322;DHT22;61553;48.994;8.940;2022-08-25T17:55:31;28.40;50.20
32322;DHT22;61553;48.994;8.940;2022-08-25T17:57:57;28.20;50.90